Hawk — LAGF7 — position and weather

sailwx.info

Track history (hours):
 
Tides and Currents Weather Stations Pressure Air Temp Water Temp Dewpoint Dewpoint Depression Visibility Wind Speed Wind Dir Waves Ship Positions

Hawk

Last reported at 2016-Aug-16 15:32 UTC. Time now 2016-Aug-28 06:56 UTC.
Position S 30°29' E 030°52'.
Warning: this ship's position is 11 days out of date.

Length 223 m; draft 10.4 m.

Type: Ship. MMSI: 259848000.

Date/timePositionNaut miles runAvg speedWind from/ knotsBaromVisibWave heightAir tempDewpointWater temp
2016-Aug-16 15:32S 30°29' E 030°52'7 7.1
2016-Aug-16 14:33S 30°23' E 030°57'7 6.5
2016-Aug-16 13:33S 30°18' E 031°01'6 6.0
2016-Aug-16 12:33S 30°13' E 031°04'6 5.8
2016-Aug-16 11:34S 30°08' E 031°08'5 4.8
2016-Aug-16 10:34S 30°04' E 031°10'4 4.4
2016-Aug-16 09:34S 30°01' E 031°15'6 5.8
2016-Aug-16 08:34S 30°07' E 031°12'5 4.9
2016-Aug-16 07:34S 30°11' E 031°09'23 1.3
2016-Aug-15 13:27S 30°26' E 030°50'6 6.5
2016-Aug-15 12:34S 30°21' E 030°54'6 6.3
2016-Aug-15 11:34S 30°16' E 030°57'5 5.4
2016-Aug-15 10:33S 30°13' E 031°03'5 4.9
2016-Aug-15 09:33S 30°12' E 031°08'5 4.8
2016-Aug-15 08:34S 30°11' E 031°14'6 6.0
2016-Aug-15 07:34S 30°10' E 031°21'5 5.4
2016-Aug-15 06:34S 30°08' E 031°26'8 4.2
2016-Aug-15 04:34S 30°02' E 031°33'4 4.3
2016-Aug-15 03:34S 29°59' E 031°36'4 4.3
2016-Aug-15 02:33S 29°55' E 031°39'4 4.3
2016-Aug-15 01:34S 29°52' E 031°42'5 4.5
2016-Aug-15 00:34S 29°48' E 031°46'4 4.4
2016-Aug-14 23:33S 29°45' E 031°49'4 4.1
2016-Aug-14 22:33S 29°41' E 031°51'2 1.8
2016-Aug-14 21:33S 29°39' E 031°51'1 1.3
2016-Aug-14 20:33S 29°38' E 031°52'1 1.2
2016-Aug-14 19:33S 29°37' E 031°52'1 1.3
2016-Aug-14 18:33S 29°36' E 031°53'1 1.3
2016-Aug-14 17:34S 29°35' E 031°54'1 1.2
2016-Aug-14 16:33S 29°34' E 031°55'3 3.4
2016-Aug-14 15:33S 29°31' E 031°56'8 7.8
2016-Aug-14 14:33S 29°23' E 031°58'6 5.6
2016-Aug-14 13:25S 29°17' E 031°60'3 3.4
2016-Aug-14 12:30S 29°14' E 032°00'2 2.4
2016-Aug-14 11:33S 29°12' E 032°01'1 0.7
2016-Aug-14 10:30S 29°12' E 032°02'1 1.3
2016-Aug-14 09:28S 29°13' E 032°02'1 0.9
2016-Aug-14 08:33S 29°14' E 032°03'1 1.3
2016-Aug-14 07:31S 29°13' E 032°04'4 4.2
2016-Aug-14 06:33S 29°10' E 032°06'7 3.3
2016-Aug-14 04:34S 29°14' E 032°00'2 2.3
2016-Aug-14 03:34S 29°15' E 031°58'2 1.8
2016-Aug-14 02:33S 29°16' E 031°56'2 1.7
2016-Aug-14 01:34S 29°17' E 031°55'2 1.9
2016-Aug-14 00:34S 29°18' E 031°53'2 1.7
2016-Aug-13 23:33S 29°19' E 031°51'1 1.3
2016-Aug-13 22:33S 29°20' E 031°50'1 1.5
2016-Aug-13 21:34S 29°21' E 031°49'2 1.6
2016-Aug-13 20:33S 29°22' E 031°47'4 4.1
2016-Aug-13 19:33S 29°24' E 031°43'3 3.0
2016-Aug-13 18:34S 29°26' E 031°41'2 1.7
2016-Aug-13 17:34S 29°28' E 031°40'12 2.0
2016-Aug-13 11:33S 29°37' E 031°32'2 1.6
2016-Aug-13 10:33S 29°39' E 031°32'2 2.1
2016-Aug-13 09:34S 29°41' E 031°30'3 3.0
2016-Aug-13 08:33S 29°43' E 031°29'3 3.0
2016-Aug-13 07:31S 29°46' E 031°27'3 3.4
2016-Aug-13 06:34S 29°49' E 031°25'7 3.5
2016-Aug-13 04:27S 29°55' E 031°21'3 3.5
2016-Aug-13 03:33S 29°58' E 031°19'4 4.1
2016-Aug-13 02:33S 30°02' E 031°17'6 0.7
2016-Aug-12 17:21S 30°08' E 031°19'7 6.8
2016-Aug-12 16:22S 30°02' E 031°23'  
Track history (hours):
 
Tides and Currents Weather Stations Pressure Air Temp Water Temp Dewpoint Dewpoint Depression Visibility Wind Speed Wind Dir Waves Ship Positions

Hawk

Last reported at 2016-Aug-16 15:32 UTC. Time now 2016-Aug-28 06:56 UTC.
Position S 30°29' E 030°52'.
Warning: this ship's position is 11 days out of date.

Length 223 m; draft 10.4 m.

Type: Ship. MMSI: 259848000.

Date/timePositionNaut miles runAvg speedWind from/ knotsBaromVisibWave heightAir tempDewpointWater temp
2016-Aug-16 15:32S 30°29' E 030°52'7 7.1
2016-Aug-16 14:33S 30°23' E 030°57'7 6.5
2016-Aug-16 13:33S 30°18' E 031°01'6 6.0
2016-Aug-16 12:33S 30°13' E 031°04'6 5.8
2016-Aug-16 11:34S 30°08' E 031°08'5 4.8
2016-Aug-16 10:34S 30°04' E 031°10'4 4.4
2016-Aug-16 09:34S 30°01' E 031°15'6 5.8
2016-Aug-16 08:34S 30°07' E 031°12'5 4.9
2016-Aug-16 07:34S 30°11' E 031°09'23 1.3
2016-Aug-15 13:27S 30°26' E 030°50'6 6.5
2016-Aug-15 12:34S 30°21' E 030°54'6 6.3
2016-Aug-15 11:34S 30°16' E 030°57'5 5.4
2016-Aug-15 10:33S 30°13' E 031°03'5 4.9
2016-Aug-15 09:33S 30°12' E 031°08'5 4.8
2016-Aug-15 08:34S 30°11' E 031°14'6 6.0
2016-Aug-15 07:34S 30°10' E 031°21'5 5.4
2016-Aug-15 06:34S 30°08' E 031°26'8 4.2
2016-Aug-15 04:34S 30°02' E 031°33'4 4.3
2016-Aug-15 03:34S 29°59' E 031°36'4 4.3
2016-Aug-15 02:33S 29°55' E 031°39'4 4.3
2016-Aug-15 01:34S 29°52' E 031°42'5 4.5
2016-Aug-15 00:34S 29°48' E 031°46'4 4.4
2016-Aug-14 23:33S 29°45' E 031°49'4 4.1
2016-Aug-14 22:33S 29°41' E 031°51'2 1.8
2016-Aug-14 21:33S 29°39' E 031°51'1 1.3
2016-Aug-14 20:33S 29°38' E 031°52'1 1.2
2016-Aug-14 19:33S 29°37' E 031°52'1 1.3
2016-Aug-14 18:33S 29°36' E 031°53'1 1.3
2016-Aug-14 17:34S 29°35' E 031°54'1 1.2
2016-Aug-14 16:33S 29°34' E 031°55'3 3.4
2016-Aug-14 15:33S 29°31' E 031°56'8 7.8
2016-Aug-14 14:33S 29°23' E 031°58'6 5.6
2016-Aug-14 13:25S 29°17' E 031°60'3 3.4
2016-Aug-14 12:30S 29°14' E 032°00'2 2.4
2016-Aug-14 11:33S 29°12' E 032°01'1 0.7
2016-Aug-14 10:30S 29°12' E 032°02'1 1.3
2016-Aug-14 09:28S 29°13' E 032°02'1 0.9
2016-Aug-14 08:33S 29°14' E 032°03'1 1.3
2016-Aug-14 07:31S 29°13' E 032°04'4 4.2
2016-Aug-14 06:33S 29°10' E 032°06'7 3.3
2016-Aug-14 04:34S 29°14' E 032°00'2 2.3
2016-Aug-14 03:34S 29°15' E 031°58'2 1.8
2016-Aug-14 02:33S 29°16' E 031°56'2 1.7
2016-Aug-14 01:34S 29°17' E 031°55'2 1.9
2016-Aug-14 00:34S 29°18' E 031°53'2 1.7
2016-Aug-13 23:33S 29°19' E 031°51'1 1.3
2016-Aug-13 22:33S 29°20' E 031°50'1 1.5
2016-Aug-13 21:34S 29°21' E 031°49'2 1.6
2016-Aug-13 20:33S 29°22' E 031°47'4 4.1
2016-Aug-13 19:33S 29°24' E 031°43'3 3.0
2016-Aug-13 18:34S 29°26' E 031°41'2 1.7
2016-Aug-13 17:34S 29°28' E 031°40'12 2.0
2016-Aug-13 11:33S 29°37' E 031°32'2 1.6
2016-Aug-13 10:33S 29°39' E 031°32'2 2.1
2016-Aug-13 09:34S 29°41' E 031°30'3 3.0
2016-Aug-13 08:33S 29°43' E 031°29'3 3.0
2016-Aug-13 07:31S 29°46' E 031°27'3 3.4
2016-Aug-13 06:34S 29°49' E 031°25'7 3.5
2016-Aug-13 04:27S 29°55' E 031°21'3 3.5
2016-Aug-13 03:33S 29°58' E 031°19'4 4.1
2016-Aug-13 02:33S 30°02' E 031°17'6 0.7
2016-Aug-12 17:21S 30°08' E 031°19'7 6.8
2016-Aug-12 16:22S 30°02' E 031°23'  

Dump ship's entire track history